sensor_id;sensor_type;location;lat;lon;timestamp;P1;durP1;ratioP1;P2;durP2;ratioP2
21114;SDS011;10715;48.546;9.896;2022-07-01T00:01:37;7.37;;;2.30;;
21114;SDS011;10715;48.546;9.896;2022-07-01T00:04:05;3.10;;;1.30;;
21114;SDS011;10715;48.546;9.896;2022-07-01T00:06:31;2.73;;;1.10;;
21114;SDS011;10715;48.546;9.896;2022-07-01T00:08:57;1.20;;;0.83;;
21114;SDS011;10715;48.546;9.896;2022-07-01T00:11:22;4.70;;;1.43;;
21114;SDS011;10715;48.546;9.896;2022-07-01T00:13:48;3.63;;;1.13;;
21114;SDS011;10715;48.546;9.896;2022-07-01T00:16:14;8.90;;;1.27;;
21114;SDS011;10715;48.546;9.896;2022-07-01T00:18:40;10.70;;;1.30;;
21114;SDS011;10715;48.546;9.896;2022-07-01T00:21:06;6.10;;;1.20;;
21114;SDS011;10715;48.546;9.896;2022-07-01T00:23:32;4.90;;;0.70;;
21114;SDS011;10715;48.546;9.896;2022-07-01T00:25:57;1.10;;;0.70;;
21114;SDS011;10715;48.546;9.896;2022-07-01T00:28:24;1.10;;;0.60;;
21114;SDS011;10715;48.546;9.896;2022-07-01T00:30:50;3.60;;;1.10;;
21114;SDS011;10715;48.546;9.896;2022-07-01T00:33:17;6.60;;;1.17;;
21114;SDS011;10715;48.546;9.896;2022-07-01T00:35:43;2.07;;;0.70;;
21114;SDS011;10715;48.546;9.896;2022-07-01T00:38:08;2.10;;;0.60;;
21114;SDS011;10715;48.546;9.896;2022-07-01T00:40:35;0.97;;;0.70;;
21114;SDS011;10715;48.546;9.896;2022-07-01T00:43:01;1.10;;;0.83;;
21114;SDS011;10715;48.546;9.896;2022-07-01T00:45:28;1.10;;;0.90;;
21114;SDS011;10715;48.546;9.896;2022-07-01T00:47:53;1.27;;;0.90;;
21114;SDS011;10715;48.546;9.896;2022-07-01T00:50:20;1.20;;;1.00;;
21114;SDS011;10715;48.546;9.896;2022-07-01T00:52:46;1.73;;;0.80;;
21114;SDS011;10715;48.546;9.896;2022-07-01T00:55:12;1.50;;;1.40;;
21114;SDS011;10715;48.546;9.896;2022-07-01T00:57:39;3.10;;;1.50;;
21114;SDS011;10715;48.546;9.896;2022-07-01T01:00:14;1.57;;;1.00;;
21114;SDS011;10715;48.546;9.896;2022-07-01T01:03:02;1.23;;;0.80;;
21114;SDS011;10715;48.546;9.896;2022-07-01T01:05:28;1.13;;;0.80;;
21114;SDS011;10715;48.546;9.896;2022-07-01T01:07:53;3.40;;;0.80;;
21114;SDS011;10715;48.546;9.896;2022-07-01T01:10:20;1.70;;;0.90;;
21114;SDS011;10715;48.546;9.896;2022-07-01T01:12:48;3.00;;;1.20;;
21114;SDS011;10715;48.546;9.896;2022-07-01T01:15:18;10.67;;;1.60;;
21114;SDS011;10715;48.546;9.896;2022-07-01T01:17:44;4.37;;;1.30;;
21114;SDS011;10715;48.546;9.896;2022-07-01T01:20:18;1.70;;;1.60;;
21114;SDS011;10715;48.546;9.896;2022-07-01T01:22:44;1.57;;;1.47;;
21114;SDS011;10715;48.546;9.896;2022-07-01T01:25:12;1.20;;;1.10;;
21114;SDS011;10715;48.546;9.896;2022-07-01T01:27:37;1.43;;;1.10;;
21114;SDS011;10715;48.546;9.896;2022-07-01T01:30:07;29.10;;;4.03;;
21114;SDS011;10715;48.546;9.896;2022-07-01T01:32:34;13.30;;;2.10;;
21114;SDS011;10715;48.546;9.896;2022-07-01T01:35:00;4.10;;;1.60;;
21114;SDS011;10715;48.546;9.896;2022-07-01T01:37:27;5.60;;;1.73;;
21114;SDS011;10715;48.546;9.896;2022-07-01T01:39:53;11.67;;;2.83;;
21114;SDS011;10715;48.546;9.896;2022-07-01T01:42:19;1.50;;;1.13;;
21114;SDS011;10715;48.546;9.896;2022-07-01T01:44:45;5.47;;;1.20;;
21114;SDS011;10715;48.546;9.896;2022-07-01T01:47:11;15.77;;;2.30;;
21114;SDS011;10715;48.546;9.896;2022-07-01T01:49:36;1.73;;;1.37;;
21114;SDS011;10715;48.546;9.896;2022-07-01T01:52:02;4.50;;;2.10;;
21114;SDS011;10715;48.546;9.896;2022-07-01T01:54:28;1.80;;;1.70;;
21114;SDS011;10715;48.546;9.896;2022-07-01T01:56:54;3.23;;;0.87;;
21114;SDS011;10715;48.546;9.896;2022-07-01T01:59:20;3.47;;;1.83;;
21114;SDS011;10715;48.546;9.896;2022-07-01T02:01:46;2.60;;;1.13;;
21114;SDS011;10715;48.546;9.896;2022-07-01T02:04:12;3.30;;;1.50;;
21114;SDS011;10715;48.546;9.896;2022-07-01T02:06:38;1.50;;;1.40;;
21114;SDS011;10715;48.546;9.896;2022-07-01T02:09:07;1.30;;;1.20;;
21114;SDS011;10715;48.546;9.896;2022-07-01T02:11:34;1.43;;;0.80;;
21114;SDS011;10715;48.546;9.896;2022-07-01T02:14:00;1.03;;;0.90;;
21114;SDS011;10715;48.546;9.896;2022-07-01T02:16:26;1.00;;;0.60;;
21114;SDS011;10715;48.546;9.896;2022-07-01T02:18:52;0.90;;;0.63;;
21114;SDS011;10715;48.546;9.896;2022-07-01T02:21:18;1.07;;;0.60;;
21114;SDS011;10715;48.546;9.896;2022-07-01T02:23:43;1.47;;;0.70;;
21114;SDS011;10715;48.546;9.896;2022-07-01T02:26:09;1.30;;;0.87;;
21114;SDS011;10715;48.546;9.896;2022-07-01T02:28:35;1.40;;;0.93;;
21114;SDS011;10715;48.546;9.896;2022-07-01T02:31:01;1.40;;;0.87;;
21114;SDS011;10715;48.546;9.896;2022-07-01T02:33:28;2.23;;;1.40;;
21114;SDS011;10715;48.546;9.896;2022-07-01T02:35:54;1.27;;;1.17;;
21114;SDS011;10715;48.546;9.896;2022-07-01T02:38:20;1.93;;;1.83;;
21114;SDS011;10715;48.546;9.896;2022-07-01T02:40:46;2.53;;;2.33;;
21114;SDS011;10715;48.546;9.896;2022-07-01T02:43:12;1.50;;;1.07;;
21114;SDS011;10715;48.546;9.896;2022-07-01T02:45:38;2.97;;;1.10;;
21114;SDS011;10715;48.546;9.896;2022-07-01T02:48:04;1.70;;;1.60;;
21114;SDS011;10715;48.546;9.896;2022-07-01T02:50:30;1.70;;;1.60;;
21114;SDS011;10715;48.546;9.896;2022-07-01T02:52:56;2.73;;;1.60;;
21114;SDS011;10715;48.546;9.896;2022-07-01T02:55:22;2.37;;;2.27;;
21114;SDS011;10715;48.546;9.896;2022-07-01T02:57:48;2.60;;;2.40;;
21114;SDS011;10715;48.546;9.896;2022-07-01T03:00:18;3.80;;;2.80;;
21114;SDS011;10715;48.546;9.896;2022-07-01T03:02:45;2.97;;;2.77;;
21114;SDS011;10715;48.546;9.896;2022-07-01T03:05:11;4.13;;;3.47;;
21114;SDS011;10715;48.546;9.896;2022-07-01T03:07:37;3.23;;;3.03;;
21114;SDS011;10715;48.546;9.896;2022-07-01T03:10:04;4.33;;;4.00;;
21114;SDS011;10715;48.546;9.896;2022-07-01T03:12:31;4.60;;;4.30;;
21114;SDS011;10715;48.546;9.896;2022-07-01T03:15:00;3.90;;;3.60;;
21114;SDS011;10715;48.546;9.896;2022-07-01T03:17:29;3.60;;;3.40;;
21114;SDS011;10715;48.546;9.896;2022-07-01T03:19:57;3.53;;;3.20;;
21114;SDS011;10715;48.546;9.896;2022-07-01T03:22:24;4.63;;;3.57;;
21114;SDS011;10715;48.546;9.896;2022-07-01T03:24:51;6.40;;;3.30;;
21114;SDS011;10715;48.546;9.896;2022-07-01T03:27:17;3.30;;;2.33;;
21114;SDS011;10715;48.546;9.896;2022-07-01T03:29:44;2.40;;;2.20;;
21114;SDS011;10715;48.546;9.896;2022-07-01T03:32:10;2.70;;;2.17;;
21114;SDS011;10715;48.546;9.896;2022-07-01T03:34:37;2.70;;;2.50;;
21114;SDS011;10715;48.546;9.896;2022-07-01T03:37:04;3.03;;;2.30;;
21114;SDS011;10715;48.546;9.896;2022-07-01T03:39:32;2.10;;;2.00;;
21114;SDS011;10715;48.546;9.896;2022-07-01T03:41:58;2.07;;;1.87;;
21114;SDS011;10715;48.546;9.896;2022-07-01T03:44:24;1.90;;;1.80;;
21114;SDS011;10715;48.546;9.896;2022-07-01T03:46:50;2.50;;;1.50;;
21114;SDS011;10715;48.546;9.896;2022-07-01T03:49:16;1.37;;;1.10;;
21114;SDS011;10715;48.546;9.896;2022-07-01T03:51:41;2.03;;;1.30;;
21114;SDS011;10715;48.546;9.896;2022-07-01T03:54:07;4.73;;;1.33;;
21114;SDS011;10715;48.546;9.896;2022-07-01T03:56:51;1.30;;;0.90;;
21114;SDS011;10715;48.546;9.896;2022-07-01T03:59:17;1.57;;;1.13;;
21114;SDS011;10715;48.546;9.896;2022-07-01T04:01:42;1.50;;;1.40;;
21114;SDS011;10715;48.546;9.896;2022-07-01T04:04:08;1.60;;;1.07;;
21114;SDS011;10715;48.546;9.896;2022-07-01T04:06:34;3.20;;;1.00;;
21114;SDS011;10715;48.546;9.896;2022-07-01T04:09:01;1.23;;;0.97;;
21114;SDS011;10715;48.546;9.896;2022-07-01T04:11:26;1.30;;;1.07;;
21114;SDS011;10715;48.546;9.896;2022-07-01T04:13:52;1.80;;;1.33;;
21114;SDS011;10715;48.546;9.896;2022-07-01T04:16:19;3.53;;;0.77;;
21114;SDS011;10715;48.546;9.896;2022-07-01T04:18:45;1.27;;;0.80;;
21114;SDS011;10715;48.546;9.896;2022-07-01T04:21:12;1.27;;;0.80;;
21114;SDS011;10715;48.546;9.896;2022-07-01T04:23:56;0.90;;;0.50;;
21114;SDS011;10715;48.546;9.896;2022-07-01T04:26:23;1.20;;;0.70;;
21114;SDS011;10715;48.546;9.896;2022-07-01T04:28:52;2.43;;;0.77;;
21114;SDS011;10715;48.546;9.896;2022-07-01T04:31:19;1.00;;;0.80;;
21114;SDS011;10715;48.546;9.896;2022-07-01T04:33:45;1.00;;;0.80;;
21114;SDS011;10715;48.546;9.896;2022-07-01T04:36:13;1.20;;;0.70;;
21114;SDS011;10715;48.546;9.896;2022-07-01T04:38:39;1.60;;;1.03;;
21114;SDS011;10715;48.546;9.896;2022-07-01T04:41:05;1.13;;;0.97;;
21114;SDS011;10715;48.546;9.896;2022-07-01T04:43:50;3.50;;;1.70;;
21114;SDS011;10715;48.546;9.896;2022-07-01T04:46:16;1.30;;;1.20;;
21114;SDS011;10715;48.546;9.896;2022-07-01T04:48:41;3.37;;;1.97;;
21114;SDS011;10715;48.546;9.896;2022-07-01T04:51:07;2.13;;;1.93;;
21114;SDS011;10715;48.546;9.896;2022-07-01T04:53:33;2.43;;;2.23;;
21114;SDS011;10715;48.546;9.896;2022-07-01T04:55:59;1.87;;;1.77;;
21114;SDS011;10715;48.546;9.896;2022-07-01T04:58:25;3.00;;;2.30;;
21114;SDS011;10715;48.546;9.896;2022-07-01T05:00:51;2.07;;;1.97;;
21114;SDS011;10715;48.546;9.896;2022-07-01T05:03:17;2.87;;;2.27;;
21114;SDS011;10715;48.546;9.896;2022-07-01T05:05:43;2.77;;;2.57;;
21114;SDS011;10715;48.546;9.896;2022-07-01T05:08:09;3.00;;;2.70;;
21114;SDS011;10715;48.546;9.896;2022-07-01T05:10:37;2.47;;;2.37;;
21114;SDS011;10715;48.546;9.896;2022-07-01T05:13:03;2.10;;;2.00;;
21114;SDS011;10715;48.546;9.896;2022-07-01T05:15:30;1.40;;;1.20;;
21114;SDS011;10715;48.546;9.896;2022-07-01T05:17:55;1.60;;;1.50;;
21114;SDS011;10715;48.546;9.896;2022-07-01T05:20:39;1.63;;;1.53;;
21114;SDS011;10715;48.546;9.896;2022-07-01T05:23:24;2.50;;;1.57;;
21114;SDS011;10715;48.546;9.896;2022-07-01T05:25:49;2.50;;;2.30;;
21114;SDS011;10715;48.546;9.896;2022-07-01T05:28:15;2.10;;;2.00;;
21114;SDS011;10715;48.546;9.896;2022-07-01T05:30:41;2.93;;;2.73;;
21114;SDS011;10715;48.546;9.896;2022-07-01T05:33:07;2.97;;;2.77;;
21114;SDS011;10715;48.546;9.896;2022-07-01T05:35:32;4.73;;;2.90;;
21114;SDS011;10715;48.546;9.896;2022-07-01T05:37:58;3.00;;;2.80;;
21114;SDS011;10715;48.546;9.896;2022-07-01T05:40:24;4.17;;;3.70;;
21114;SDS011;10715;48.546;9.896;2022-07-01T05:42:53;3.17;;;2.43;;
21114;SDS011;10715;48.546;9.896;2022-07-01T05:45:19;3.93;;;3.63;;
21114;SDS011;10715;48.546;9.896;2022-07-01T05:47:45;3.03;;;2.83;;
21114;SDS011;10715;48.546;9.896;2022-07-01T05:50:11;2.83;;;2.20;;
21114;SDS011;10715;48.546;9.896;2022-07-01T05:52:36;2.40;;;1.23;;
21114;SDS011;10715;48.546;9.896;2022-07-01T05:55:02;1.40;;;1.30;;
21114;SDS011;10715;48.546;9.896;2022-07-01T05:57:28;1.23;;;1.13;;
21114;SDS011;10715;48.546;9.896;2022-07-01T05:59:54;1.10;;;0.90;;
21114;SDS011;10715;48.546;9.896;2022-07-01T06:02:20;1.17;;;0.70;;
21114;SDS011;10715;48.546;9.896;2022-07-01T06:04:45;0.90;;;0.60;;
21114;SDS011;10715;48.546;9.896;2022-07-01T06:07:11;0.90;;;0.70;;
21114;SDS011;10715;48.546;9.896;2022-07-01T06:09:37;1.03;;;0.60;;
21114;SDS011;10715;48.546;9.896;2022-07-01T06:12:03;1.00;;;0.70;;
21114;SDS011;10715;48.546;9.896;2022-07-01T06:14:30;1.00;;;0.60;;
21114;SDS011;10715;48.546;9.896;2022-07-01T06:16:55;1.00;;;0.70;;
21114;SDS011;10715;48.546;9.896;2022-07-01T06:19:21;0.97;;;0.47;;
21114;SDS011;10715;48.546;9.896;2022-07-01T06:21:47;1.10;;;0.80;;
21114;SDS011;10715;48.546;9.896;2022-07-01T06:24:13;1.30;;;0.77;;
21114;SDS011;10715;48.546;9.896;2022-07-01T06:26:39;0.97;;;0.80;;
21114;SDS011;10715;48.546;9.896;2022-07-01T06:29:05;2.13;;;0.77;;
21114;SDS011;10715;48.546;9.896;2022-07-01T06:31:30;1.40;;;0.80;;
21114;SDS011;10715;48.546;9.896;2022-07-01T06:33:58;1.00;;;0.70;;
21114;SDS011;10715;48.546;9.896;2022-07-01T06:36:24;1.10;;;0.60;;
21114;SDS011;10715;48.546;9.896;2022-07-01T06:38:50;1.10;;;0.60;;
21114;SDS011;10715;48.546;9.896;2022-07-01T06:41:16;1.43;;;0.70;;
21114;SDS011;10715;48.546;9.896;2022-07-01T06:44:00;1.53;;;0.70;;
21114;SDS011;10715;48.546;9.896;2022-07-01T06:46:29;1.20;;;0.70;;
21114;SDS011;10715;48.546;9.896;2022-07-01T06:48:56;0.93;;;0.70;;
21114;SDS011;10715;48.546;9.896;2022-07-01T06:51:23;1.00;;;0.70;;
21114;SDS011;10715;48.546;9.896;2022-07-01T06:53:49;1.03;;;0.60;;
21114;SDS011;10715;48.546;9.896;2022-07-01T06:56:15;0.83;;;0.50;;
21114;SDS011;10715;48.546;9.896;2022-07-01T06:58:41;1.30;;;0.60;;
21114;SDS011;10715;48.546;9.896;2022-07-01T07:01:07;1.97;;;0.50;;
21114;SDS011;10715;48.546;9.896;2022-07-01T07:03:33;0.90;;;0.70;;
21114;SDS011;10715;48.546;9.896;2022-07-01T07:05:59;1.27;;;0.60;;
21114;SDS011;10715;48.546;9.896;2022-07-01T07:08:26;0.90;;;0.50;;
21114;SDS011;10715;48.546;9.896;2022-07-01T07:10:52;11.80;;;1.03;;
21114;SDS011;10715;48.546;9.896;2022-07-01T07:13:18;1.20;;;0.60;;
21114;SDS011;10715;48.546;9.896;2022-07-01T07:15:44;3.70;;;0.87;;
21114;SDS011;10715;48.546;9.896;2022-07-01T07:18:09;4.73;;;2.13;;
21114;SDS011;10715;48.546;9.896;2022-07-01T07:20:35;1.20;;;0.87;;
21114;SDS011;10715;48.546;9.896;2022-07-01T07:23:02;0.70;;;0.40;;
21114;SDS011;10715;48.546;9.896;2022-07-01T07:25:28;1.20;;;0.60;;
21114;SDS011;10715;48.546;9.896;2022-07-01T07:27:54;0.90;;;0.57;;
21114;SDS011;10715;48.546;9.896;2022-07-01T07:30:19;1.27;;;0.60;;
21114;SDS011;10715;48.546;9.896;2022-07-01T07:32:45;1.40;;;0.40;;
21114;SDS011;10715;48.546;9.896;2022-07-01T07:35:11;1.13;;;0.70;;
21114;SDS011;10715;48.546;9.896;2022-07-01T07:37:38;1.30;;;0.63;;
21114;SDS011;10715;48.546;9.896;2022-07-01T07:40:04;1.17;;;0.63;;
21114;SDS011;10715;48.546;9.896;2022-07-01T07:42:33;0.90;;;0.40;;
21114;SDS011;10715;48.546;9.896;2022-07-01T07:44:59;1.13;;;0.50;;
21114;SDS011;10715;48.546;9.896;2022-07-01T07:47:24;1.00;;;0.40;;
21114;SDS011;10715;48.546;9.896;2022-07-01T07:49:50;0.80;;;0.50;;
21114;SDS011;10715;48.546;9.896;2022-07-01T07:52:16;1.20;;;0.50;;
21114;SDS011;10715;48.546;9.896;2022-07-01T07:54:42;8.23;;;0.50;;
21114;SDS011;10715;48.546;9.896;2022-07-01T07:57:08;4.63;;;0.40;;
21114;SDS011;10715;48.546;9.896;2022-07-01T07:59:34;0.80;;;0.40;;
21114;SDS011;10715;48.546;9.896;2022-07-01T08:02:00;0.80;;;0.40;;
21114;SDS011;10715;48.546;9.896;2022-07-01T08:04:26;0.80;;;0.50;;
21114;SDS011;10715;48.546;9.896;2022-07-01T08:06:52;0.60;;;0.40;;
21114;SDS011;10715;48.546;9.896;2022-07-01T08:09:18;1.00;;;0.60;;
21114;SDS011;10715;48.546;9.896;2022-07-01T08:11:43;1.00;;;0.60;;
21114;SDS011;10715;48.546;9.896;2022-07-01T08:14:09;12.97;;;1.43;;
21114;SDS011;10715;48.546;9.896;2022-07-01T08:16:35;12.53;;;0.80;;
21114;SDS011;10715;48.546;9.896;2022-07-01T08:19:01;4.83;;;0.40;;
21114;SDS011;10715;48.546;9.896;2022-07-01T08:21:28;0.77;;;0.40;;
21114;SDS011;10715;48.546;9.896;2022-07-01T08:23:54;12.70;;;1.63;;
21114;SDS011;10715;48.546;9.896;2022-07-01T08:26:20;1.77;;;0.47;;
21114;SDS011;10715;48.546;9.896;2022-07-01T08:28:46;6.77;;;0.63;;
21114;SDS011;10715;48.546;9.896;2022-07-01T08:31:12;33.27;;;1.70;;
21114;SDS011;10715;48.546;9.896;2022-07-01T08:33:38;4.40;;;0.60;;
21114;SDS011;10715;48.546;9.896;2022-07-01T08:36:05;7.00;;;0.80;;
21114;SDS011;10715;48.546;9.896;2022-07-01T08:38:32;19.03;;;2.20;;
21114;SDS011;10715;48.546;9.896;2022-07-01T08:40:58;0.80;;;0.40;;
21114;SDS011;10715;48.546;9.896;2022-07-01T08:43:25;4.03;;;1.00;;
21114;SDS011;10715;48.546;9.896;2022-07-01T08:45:51;8.93;;;0.67;;
21114;SDS011;10715;48.546;9.896;2022-07-01T08:48:17;9.30;;;1.63;;
21114;SDS011;10715;48.546;9.896;2022-07-01T08:50:43;16.03;;;1.63;;
21114;SDS011;10715;48.546;9.896;2022-07-01T08:53:10;2.73;;;0.50;;
21114;SDS011;10715;48.546;9.896;2022-07-01T08:55:37;3.30;;;0.80;;
21114;SDS011;10715;48.546;9.896;2022-07-01T08:58:22;1.93;;;1.10;;
21114;SDS011;10715;48.546;9.896;2022-07-01T09:00:49;9.87;;;0.97;;
21114;SDS011;10715;48.546;9.896;2022-07-01T09:03:21;3.00;;;0.60;;
21114;SDS011;10715;48.546;9.896;2022-07-01T09:05:49;11.67;;;1.67;;
21114;SDS011;10715;48.546;9.896;2022-07-01T09:08:17;3.27;;;1.03;;
21114;SDS011;10715;48.546;9.896;2022-07-01T09:10:44;6.43;;;0.80;;
21114;SDS011;10715;48.546;9.896;2022-07-01T09:13:11;4.73;;;0.77;;
21114;SDS011;10715;48.546;9.896;2022-07-01T09:15:39;37.27;;;2.60;;
21114;SDS011;10715;48.546;9.896;2022-07-01T09:18:10;0.83;;;0.50;;
21114;SDS011;10715;48.546;9.896;2022-07-01T09:20:41;11.67;;;1.63;;
21114;SDS011;10715;48.546;9.896;2022-07-01T09:23:10;8.50;;;1.20;;
21114;SDS011;10715;48.546;9.896;2022-07-01T09:25:44;1.40;;;0.60;;
21114;SDS011;10715;48.546;9.896;2022-07-01T09:28:16;3.33;;;0.70;;
21114;SDS011;10715;48.546;9.896;2022-07-01T09:30:45;21.40;;;1.87;;
21114;SDS011;10715;48.546;9.896;2022-07-01T09:33:20;3.70;;;0.83;;
21114;SDS011;10715;48.546;9.896;2022-07-01T09:35:48;5.33;;;0.80;;
21114;SDS011;10715;48.546;9.896;2022-07-01T09:38:16;15.23;;;1.13;;
21114;SDS011;10715;48.546;9.896;2022-07-01T09:40:50;6.10;;;1.07;;
21114;SDS011;10715;48.546;9.896;2022-07-01T09:46:10;1.80;;;0.93;;
21114;SDS011;10715;48.546;9.896;2022-07-01T09:51:02;1.23;;;0.60;;
21114;SDS011;10715;48.546;9.896;2022-07-01T09:53:29;9.90;;;1.07;;
21114;SDS011;10715;48.546;9.896;2022-07-01T09:55:55;0.90;;;0.60;;
21114;SDS011;10715;48.546;9.896;2022-07-01T09:58:21;3.10;;;1.00;;
21114;SDS011;10715;48.546;9.896;2022-07-01T10:00:47;1.20;;;0.70;;
21114;SDS011;10715;48.546;9.896;2022-07-01T10:03:14;2.50;;;0.90;;
21114;SDS011;10715;48.546;9.896;2022-07-01T10:05:44;2.53;;;0.73;;
21114;SDS011;10715;48.546;9.896;2022-07-01T10:11:52;1.00;;;0.70;;
21114;SDS011;10715;48.546;9.896;2022-07-01T10:14:37;1.87;;;0.70;;
21114;SDS011;10715;48.546;9.896;2022-07-01T10:17:05;1.43;;;0.93;;
21114;SDS011;10715;48.546;9.896;2022-07-01T10:19:31;1.30;;;0.80;;
21114;SDS011;10715;48.546;9.896;2022-07-01T10:22:41;2.60;;;0.77;;
21114;SDS011;10715;48.546;9.896;2022-07-01T10:24:54;8.50;;;1.30;;
21114;SDS011;10715;48.546;9.896;2022-07-01T10:27:24;1.20;;;0.70;;
21114;SDS011;10715;48.546;9.896;2022-07-01T10:32:46;3.37;;;0.80;;
21114;SDS011;10715;48.546;9.896;2022-07-01T10:35:13;0.90;;;0.50;;
21114;SDS011;10715;48.546;9.896;2022-07-01T10:37:59;1.50;;;1.07;;
21114;SDS011;10715;48.546;9.896;2022-07-01T10:43:10;3.77;;;0.70;;
21114;SDS011;10715;48.546;9.896;2022-07-01T10:45:43;3.13;;;1.33;;
21114;SDS011;10715;48.546;9.896;2022-07-01T10:50:49;3.53;;;0.70;;
21114;SDS011;10715;48.546;9.896;2022-07-01T10:53:15;4.43;;;1.00;;
21114;SDS011;10715;48.546;9.896;2022-07-01T10:55:46;1.67;;;1.57;;
21114;SDS011;10715;48.546;9.896;2022-07-01T10:58:13;4.83;;;1.07;;
21114;SDS011;10715;48.546;9.896;2022-07-01T11:00:41;4.30;;;1.07;;
21114;SDS011;10715;48.546;9.896;2022-07-01T11:03:15;12.47;;;1.63;;
21114;SDS011;10715;48.546;9.896;2022-07-01T11:05:47;2.67;;;1.53;;
21114;SDS011;10715;48.546;9.896;2022-07-01T11:08:15;1.20;;;0.87;;
21114;SDS011;10715;48.546;9.896;2022-07-01T11:10:41;3.53;;;1.00;;
21114;SDS011;10715;48.546;9.896;2022-07-01T11:13:07;15.87;;;1.80;;
21114;SDS011;10715;48.546;9.896;2022-07-01T11:15:38;9.43;;;1.80;;
21114;SDS011;10715;48.546;9.896;2022-07-01T11:18:04;2.73;;;1.10;;
21114;SDS011;10715;48.546;9.896;2022-07-01T11:20:30;2.53;;;1.17;;
21114;SDS011;10715;48.546;9.896;2022-07-01T11:22:57;3.73;;;1.03;;
21114;SDS011;10715;48.546;9.896;2022-07-01T11:25:23;12.17;;;1.40;;
21114;SDS011;10715;48.546;9.896;2022-07-01T11:27:50;2.63;;;1.00;;
21114;SDS011;10715;48.546;9.896;2022-07-01T11:30:17;2.17;;;0.60;;
21114;SDS011;10715;48.546;9.896;2022-07-01T11:32:46;1.57;;;0.77;;
21114;SDS011;10715;48.546;9.896;2022-07-01T11:35:15;1.10;;;0.70;;
21114;SDS011;10715;48.546;9.896;2022-07-01T11:38:20;0.90;;;0.50;;
21114;SDS011;10715;48.546;9.896;2022-07-01T11:41:07;1.10;;;0.60;;
21114;SDS011;10715;48.546;9.896;2022-07-01T11:43:44;1.37;;;0.80;;
21114;SDS011;10715;48.546;9.896;2022-07-01T11:46:09;1.13;;;0.80;;
21114;SDS011;10715;48.546;9.896;2022-07-01T11:48:42;1.27;;;0.70;;
21114;SDS011;10715;48.546;9.896;2022-07-01T11:51:14;0.90;;;0.60;;
21114;SDS011;10715;48.546;9.896;2022-07-01T11:53:41;1.70;;;1.23;;
21114;SDS011;10715;48.546;9.896;2022-07-01T11:56:09;1.10;;;0.90;;
21114;SDS011;10715;48.546;9.896;2022-07-01T11:58:45;1.00;;;0.80;;
21114;SDS011;10715;48.546;9.896;2022-07-01T12:01:19;5.37;;;1.27;;
21114;SDS011;10715;48.546;9.896;2022-07-01T12:03:49;2.03;;;1.40;;
21114;SDS011;10715;48.546;9.896;2022-07-01T12:06:16;2.70;;;1.43;;
21114;SDS011;10715;48.546;9.896;2022-07-01T12:08:44;1.47;;;1.37;;
21114;SDS011;10715;48.546;9.896;2022-07-01T12:11:14;2.37;;;1.53;;
21114;SDS011;10715;48.546;9.896;2022-07-01T12:13:41;1.97;;;1.83;;
21114;SDS011;10715;48.546;9.896;2022-07-01T12:16:10;1.53;;;1.43;;
21114;SDS011;10715;48.546;9.896;2022-07-01T12:18:37;2.40;;;2.20;;
21114;SDS011;10715;48.546;9.896;2022-07-01T12:21:03;1.90;;;1.73;;
21114;SDS011;10715;48.546;9.896;2022-07-01T12:23:30;1.60;;;1.47;;
21114;SDS011;10715;48.546;9.896;2022-07-01T12:26:03;1.30;;;1.03;;
21114;SDS011;10715;48.546;9.896;2022-07-01T12:28:31;2.40;;;1.30;;
21114;SDS011;10715;48.546;9.896;2022-07-01T12:31:07;1.33;;;1.20;;
21114;SDS011;10715;48.546;9.896;2022-07-01T12:33:34;2.00;;;1.80;;
21114;SDS011;10715;48.546;9.896;2022-07-01T12:36:05;3.00;;;1.63;;
21114;SDS011;10715;48.546;9.896;2022-07-01T12:38:32;3.20;;;2.27;;
21114;SDS011;10715;48.546;9.896;2022-07-01T12:41:00;2.50;;;2.30;;
21114;SDS011;10715;48.546;9.896;2022-07-01T12:43:30;3.63;;;2.87;;
21114;SDS011;10715;48.546;9.896;2022-07-01T12:46:02;2.33;;;2.23;;
21114;SDS011;10715;48.546;9.896;2022-07-01T12:48:28;2.80;;;2.60;;
21114;SDS011;10715;48.546;9.896;2022-07-01T12:51:00;1.60;;;1.47;;
21114;SDS011;10715;48.546;9.896;2022-07-01T12:53:26;1.13;;;0.83;;
21114;SDS011;10715;48.546;9.896;2022-07-01T12:55:54;2.13;;;0.90;;
21114;SDS011;10715;48.546;9.896;2022-07-01T12:58:23;0.90;;;0.50;;
21114;SDS011;10715;48.546;9.896;2022-07-01T13:00:51;1.00;;;0.60;;
21114;SDS011;10715;48.546;9.896;2022-07-01T13:03:22;1.30;;;0.70;;
21114;SDS011;10715;48.546;9.896;2022-07-01T13:05:50;0.90;;;0.60;;
21114;SDS011;10715;48.546;9.896;2022-07-01T13:08:17;1.30;;;0.50;;
21114;SDS011;10715;48.546;9.896;2022-07-01T13:10:43;0.77;;;0.40;;
21114;SDS011;10715;48.546;9.896;2022-07-01T13:13:10;0.80;;;0.60;;
21114;SDS011;10715;48.546;9.896;2022-07-01T13:15:36;1.20;;;0.93;;
21114;SDS011;10715;48.546;9.896;2022-07-01T13:18:02;3.13;;;0.83;;
21114;SDS011;10715;48.546;9.896;2022-07-01T13:20:29;1.80;;;0.70;;
21114;SDS011;10715;48.546;9.896;2022-07-01T13:22:55;0.73;;;0.33;;
21114;SDS011;10715;48.546;9.896;2022-07-01T13:25:21;1.57;;;0.40;;
21114;SDS011;10715;48.546;9.896;2022-07-01T13:27:47;0.67;;;0.37;;
21114;SDS011;10715;48.546;9.896;2022-07-01T13:30:13;0.70;;;0.40;;
21114;SDS011;10715;48.546;9.896;2022-07-01T13:32:41;0.70;;;0.40;;
21114;SDS011;10715;48.546;9.896;2022-07-01T13:35:08;0.60;;;0.40;;
21114;SDS011;10715;48.546;9.896;2022-07-01T13:37:34;0.70;;;0.30;;
21114;SDS011;10715;48.546;9.896;2022-07-01T13:40:00;0.60;;;0.40;;
21114;SDS011;10715;48.546;9.896;2022-07-01T13:42:26;1.27;;;0.40;;
21114;SDS011;10715;48.546;9.896;2022-07-01T13:44:52;0.60;;;0.30;;
21114;SDS011;10715;48.546;9.896;2022-07-01T13:47:18;0.70;;;0.40;;
21114;SDS011;10715;48.546;9.896;2022-07-01T13:49:44;0.60;;;0.37;;
21114;SDS011;10715;48.546;9.896;2022-07-01T13:52:10;0.60;;;0.30;;
21114;SDS011;10715;48.546;9.896;2022-07-01T13:54:36;0.70;;;0.30;;
21114;SDS011;10715;48.546;9.896;2022-07-01T13:57:03;0.87;;;0.33;;
21114;SDS011;10715;48.546;9.896;2022-07-01T13:59:29;0.70;;;0.40;;
21114;SDS011;10715;48.546;9.896;2022-07-01T14:01:55;0.60;;;0.30;;
21114;SDS011;10715;48.546;9.896;2022-07-01T14:04:21;0.60;;;0.40;;
21114;SDS011;10715;48.546;9.896;2022-07-01T14:06:47;1.47;;;0.37;;
21114;SDS011;10715;48.546;9.896;2022-07-01T14:09:13;0.80;;;0.40;;
21114;SDS011;10715;48.546;9.896;2022-07-01T14:11:39;0.60;;;0.30;;
21114;SDS011;10715;48.546;9.896;2022-07-01T14:14:05;0.63;;;0.30;;
21114;SDS011;10715;48.546;9.896;2022-07-01T14:16:30;1.03;;;0.50;;
21114;SDS011;10715;48.546;9.896;2022-07-01T14:18:56;0.60;;;0.30;;
21114;SDS011;10715;48.546;9.896;2022-07-01T14:21:22;0.67;;;0.37;;
21114;SDS011;10715;48.546;9.896;2022-07-01T14:23:48;0.60;;;0.30;;
21114;SDS011;10715;48.546;9.896;2022-07-01T14:26:14;0.70;;;0.40;;
21114;SDS011;10715;48.546;9.896;2022-07-01T14:28:44;1.10;;;0.40;;
21114;SDS011;10715;48.546;9.896;2022-07-01T14:31:10;1.23;;;0.40;;
21114;SDS011;10715;48.546;9.896;2022-07-01T14:33:35;1.63;;;0.50;;
21114;SDS011;10715;48.546;9.896;2022-07-01T14:36:01;2.00;;;0.50;;
21114;SDS011;10715;48.546;9.896;2022-07-01T14:38:27;1.20;;;0.37;;
21114;SDS011;10715;48.546;9.896;2022-07-01T14:40:53;0.60;;;0.30;;
21114;SDS011;10715;48.546;9.896;2022-07-01T14:43:19;0.70;;;0.40;;
21114;SDS011;10715;48.546;9.896;2022-07-01T14:45:45;0.80;;;0.30;;
21114;SDS011;10715;48.546;9.896;2022-07-01T14:48:11;0.80;;;0.40;;
21114;SDS011;10715;48.546;9.896;2022-07-01T14:50:37;1.50;;;0.30;;
21114;SDS011;10715;48.546;9.896;2022-07-01T14:53:05;1.13;;;0.30;;
21114;SDS011;10715;48.546;9.896;2022-07-01T14:55:33;0.63;;;0.37;;
21114;SDS011;10715;48.546;9.896;2022-07-01T14:57:59;0.80;;;0.40;;
21114;SDS011;10715;48.546;9.896;2022-07-01T15:00:25;0.80;;;0.37;;
21114;SDS011;10715;48.546;9.896;2022-07-01T15:02:51;1.97;;;0.30;;
21114;SDS011;10715;48.546;9.896;2022-07-01T15:05:17;0.70;;;0.30;;
21114;SDS011;10715;48.546;9.896;2022-07-01T15:07:43;1.63;;;0.33;;